sensor_id;sensor_type;location;lat;lon;timestamp;P1;durP1;ratioP1;P2;durP2;ratioP2
60086;SDS011;45960;53.630;55.972;2023-06-26T00:00:16;10.02;;;5.25;;
60086;SDS011;45960;53.630;55.972;2023-06-26T00:01:20;7.32;;;4.72;;
60086;SDS011;45960;53.630;55.972;2023-06-26T00:02:22;8.27;;;4.65;;
60086;SDS011;45960;53.630;55.972;2023-06-26T00:03:23;7.63;;;4.95;;
60086;SDS011;45960;53.630;55.972;2023-06-26T00:04:24;8.63;;;5.22;;
60086;SDS011;45960;53.630;55.972;2023-06-26T00:05:25;10.25;;;5.07;;
60086;SDS011;45960;53.630;55.972;2023-06-26T00:06:28;6.03;;;4.57;;
60086;SDS011;45960;53.630;55.972;2023-06-26T00:07:29;8.50;;;4.88;;
60086;SDS011;45960;53.630;55.972;2023-06-26T00:08:31;7.55;;;4.78;;
60086;SDS011;45960;53.630;55.972;2023-06-26T00:09:32;7.03;;;4.63;;
60086;SDS011;45960;53.630;55.972;2023-06-26T00:10:34;8.45;;;4.55;;
60086;SDS011;45960;53.630;55.972;2023-06-26T00:11:35;7.60;;;5.32;;
60086;SDS011;45960;53.630;55.972;2023-06-26T00:12:36;6.00;;;4.38;;
60086;SDS011;45960;53.630;55.972;2023-06-26T00:13:37;7.95;;;4.35;;
60086;SDS011;45960;53.630;55.972;2023-06-26T00:14:38;8.80;;;5.13;;
60086;SDS011;45960;53.630;55.972;2023-06-26T00:15:40;7.80;;;4.45;;
60086;SDS011;45960;53.630;55.972;2023-06-26T00:16:41;7.55;;;4.13;;
60086;SDS011;45960;53.630;55.972;2023-06-26T00:17:43;7.28;;;4.85;;
60086;SDS011;45960;53.630;55.972;2023-06-26T00:18:45;8.93;;;3.97;;
60086;SDS011;45960;53.630;55.972;2023-06-26T00:19:46;8.75;;;4.93;;
60086;SDS011;45960;53.630;55.972;2023-06-26T00:20:47;6.00;;;4.30;;
60086;SDS011;45960;53.630;55.972;2023-06-26T00:21:48;8.73;;;5.18;;
60086;SDS011;45960;53.630;55.972;2023-06-26T00:22:49;7.13;;;4.88;;
60086;SDS011;45960;53.630;55.972;2023-06-26T00:23:51;7.53;;;4.05;;
60086;SDS011;45960;53.630;55.972;2023-06-26T00:24:52;7.70;;;4.05;;
60086;SDS011;45960;53.630;55.972;2023-06-26T00:25:53;10.43;;;4.60;;
60086;SDS011;45960;53.630;55.972;2023-06-26T00:26:54;6.20;;;3.72;;
60086;SDS011;45960;53.630;55.972;2023-06-26T00:27:56;8.25;;;4.65;;
60086;SDS011;45960;53.630;55.972;2023-06-26T00:28:57;5.93;;;4.13;;
60086;SDS011;45960;53.630;55.972;2023-06-26T00:29:58;7.13;;;4.85;;
60086;SDS011;45960;53.630;55.972;2023-06-26T00:30:59;6.45;;;4.15;;
60086;SDS011;45960;53.630;55.972;2023-06-26T00:32:04;6.93;;;4.47;;
60086;SDS011;45960;53.630;55.972;2023-06-26T00:33:07;8.68;;;4.25;;
60086;SDS011;45960;53.630;55.972;2023-06-26T00:34:08;7.85;;;4.18;;
60086;SDS011;45960;53.630;55.972;2023-06-26T00:35:09;5.75;;;4.28;;
60086;SDS011;45960;53.630;55.972;2023-06-26T00:36:11;7.00;;;4.45;;
60086;SDS011;45960;53.630;55.972;2023-06-26T00:37:12;7.55;;;4.00;;
60086;SDS011;45960;53.630;55.972;2023-06-26T00:38:13;14.93;;;4.65;;
60086;SDS011;45960;53.630;55.972;2023-06-26T00:39:14;6.25;;;4.07;;
60086;SDS011;45960;53.630;55.972;2023-06-26T00:40:16;10.85;;;3.95;;
60086;SDS011;45960;53.630;55.972;2023-06-26T00:41:17;6.68;;;4.28;;
60086;SDS011;45960;53.630;55.972;2023-06-26T00:42:18;9.35;;;4.53;;
60086;SDS011;45960;53.630;55.972;2023-06-26T00:43:19;7.55;;;4.07;;
60086;SDS011;45960;53.630;55.972;2023-06-26T00:44:23;8.40;;;4.05;;
60086;SDS011;45960;53.630;55.972;2023-06-26T00:45:24;6.88;;;3.80;;
60086;SDS011;45960;53.630;55.972;2023-06-26T00:46:26;5.85;;;3.65;;
60086;SDS011;45960;53.630;55.972;2023-06-26T00:47:27;7.30;;;3.90;;
60086;SDS011;45960;53.630;55.972;2023-06-26T00:48:29;7.25;;;3.75;;
60086;SDS011;45960;53.630;55.972;2023-06-26T00:49:30;6.40;;;4.55;;
60086;SDS011;45960;53.630;55.972;2023-06-26T00:50:31;6.65;;;4.32;;
60086;SDS011;45960;53.630;55.972;2023-06-26T00:51:33;6.90;;;3.90;;
60086;SDS011;45960;53.630;55.972;2023-06-26T00:52:34;6.35;;;4.45;;
60086;SDS011;45960;53.630;55.972;2023-06-26T00:53:36;7.63;;;4.35;;
60086;SDS011;45960;53.630;55.972;2023-06-26T00:54:38;6.70;;;3.72;;
60086;SDS011;45960;53.630;55.972;2023-06-26T00:55:39;7.82;;;4.03;;
60086;SDS011;45960;53.630;55.972;2023-06-26T00:56:40;10.73;;;4.00;;
60086;SDS011;45960;53.630;55.972;2023-06-26T00:57:42;7.18;;;4.65;;
60086;SDS011;45960;53.630;55.972;2023-06-26T00:58:43;6.97;;;3.83;;
60086;SDS011;45960;53.630;55.972;2023-06-26T00:59:46;7.55;;;4.28;;
60086;SDS011;45960;53.630;55.972;2023-06-26T01:00:47;6.78;;;4.28;;
60086;SDS011;45960;53.630;55.972;2023-06-26T01:01:50;7.63;;;4.03;;
60086;SDS011;45960;53.630;55.972;2023-06-26T01:02:51;5.18;;;3.55;;
60086;SDS011;45960;53.630;55.972;2023-06-26T01:03:52;6.82;;;3.97;;
60086;SDS011;45960;53.630;55.972;2023-06-26T01:04:55;6.78;;;3.90;;
60086;SDS011;45960;53.630;55.972;2023-06-26T01:05:56;6.65;;;3.80;;
60086;SDS011;45960;53.630;55.972;2023-06-26T01:06:59;7.70;;;3.88;;
60086;SDS011;45960;53.630;55.972;2023-06-26T01:08:02;6.80;;;3.75;;
60086;SDS011;45960;53.630;55.972;2023-06-26T01:09:04;5.55;;;3.70;;
60086;SDS011;45960;53.630;55.972;2023-06-26T01:10:05;8.55;;;4.05;;
60086;SDS011;45960;53.630;55.972;2023-06-26T01:11:07;8.98;;;3.70;;
60086;SDS011;45960;53.630;55.972;2023-06-26T01:12:08;9.23;;;4.10;;
60086;SDS011;45960;53.630;55.972;2023-06-26T01:13:09;6.60;;;3.70;;
60086;SDS011;45960;53.630;55.972;2023-06-26T01:14:13;9.35;;;3.97;;
60086;SDS011;45960;53.630;55.972;2023-06-26T01:15:15;6.05;;;4.10;;
60086;SDS011;45960;53.630;55.972;2023-06-26T01:16:16;6.47;;;3.75;;
60086;SDS011;45960;53.630;55.972;2023-06-26T01:17:20;6.90;;;4.63;;
60086;SDS011;45960;53.630;55.972;2023-06-26T01:18:22;7.68;;;4.00;;
60086;SDS011;45960;53.630;55.972;2023-06-26T01:19:26;9.38;;;4.18;;
60086;SDS011;45960;53.630;55.972;2023-06-26T01:20:32;6.28;;;4.25;;
60086;SDS011;45960;53.630;55.972;2023-06-26T01:21:43;7.43;;;4.13;;
60086;SDS011;45960;53.630;55.972;2023-06-26T01:22:55;6.47;;;3.80;;
60086;SDS011;45960;53.630;55.972;2023-06-26T01:24:09;5.32;;;3.75;;
60086;SDS011;45960;53.630;55.972;2023-06-26T01:26:45;9.77;;;3.78;;
60086;SDS011;45960;53.630;55.972;2023-06-26T01:27:52;6.35;;;4.00;;
60086;SDS011;45960;53.630;55.972;2023-06-26T01:28:55;14.65;;;4.65;;
60086;SDS011;45960;53.630;55.972;2023-06-26T01:30:00;9.57;;;3.58;;
60086;SDS011;45960;53.630;55.972;2023-06-26T01:31:06;8.10;;;4.63;;
60086;SDS011;45960;53.630;55.972;2023-06-26T01:32:08;6.18;;;3.92;;
60086;SDS011;45960;53.630;55.972;2023-06-26T01:33:10;8.35;;;3.85;;
60086;SDS011;45960;53.630;55.972;2023-06-26T01:34:13;7.15;;;4.03;;
60086;SDS011;45960;53.630;55.972;2023-06-26T01:35:16;5.35;;;3.17;;
60086;SDS011;45960;53.630;55.972;2023-06-26T01:36:18;11.30;;;4.10;;
60086;SDS011;45960;53.630;55.972;2023-06-26T01:37:19;7.35;;;3.83;;
60086;SDS011;45960;53.630;55.972;2023-06-26T01:38:20;7.60;;;4.18;;
60086;SDS011;45960;53.630;55.972;2023-06-26T01:39:24;5.55;;;3.38;;
60086;SDS011;45960;53.630;55.972;2023-06-26T01:40:25;6.80;;;3.85;;
60086;SDS011;45960;53.630;55.972;2023-06-26T01:41:26;5.93;;;3.75;;
60086;SDS011;45960;53.630;55.972;2023-06-26T01:42:27;11.07;;;4.20;;
60086;SDS011;45960;53.630;55.972;2023-06-26T01:44:46;8.68;;;3.50;;
60086;SDS011;45960;53.630;55.972;2023-06-26T01:45:49;12.23;;;2.97;;
60086;SDS011;45960;53.630;55.972;2023-06-26T01:46:55;5.80;;;3.40;;
60086;SDS011;45960;53.630;55.972;2023-06-26T01:48:05;5.95;;;3.25;;
60086;SDS011;45960;53.630;55.972;2023-06-26T01:49:12;5.97;;;2.92;;
60086;SDS011;45960;53.630;55.972;2023-06-26T01:50:18;7.38;;;3.67;;
60086;SDS011;45960;53.630;55.972;2023-06-26T01:51:25;8.85;;;3.28;;
60086;SDS011;45960;53.630;55.972;2023-06-26T01:53:50;4.50;;;3.10;;
60086;SDS011;45960;53.630;55.972;2023-06-26T01:56:07;5.15;;;3.15;;
60086;SDS011;45960;53.630;55.972;2023-06-26T01:57:13;7.47;;;2.90;;
60086;SDS011;45960;53.630;55.972;2023-06-26T01:58:17;5.65;;;3.60;;
60086;SDS011;45960;53.630;55.972;2023-06-26T01:59:23;4.47;;;2.88;;
60086;SDS011;45960;53.630;55.972;2023-06-26T02:00:26;9.45;;;3.10;;
60086;SDS011;45960;53.630;55.972;2023-06-26T02:01:28;16.45;;;3.38;;
60086;SDS011;45960;53.630;55.972;2023-06-26T02:02:32;12.07;;;3.42;;
60086;SDS011;45960;53.630;55.972;2023-06-26T02:03:33;8.23;;;4.07;;
60086;SDS011;45960;53.630;55.972;2023-06-26T02:04:34;7.68;;;3.58;;
60086;SDS011;45960;53.630;55.972;2023-06-26T02:05:35;5.95;;;3.47;;
60086;SDS011;45960;53.630;55.972;2023-06-26T02:06:38;6.43;;;3.58;;
60086;SDS011;45960;53.630;55.972;2023-06-26T02:07:39;6.20;;;3.80;;
60086;SDS011;45960;53.630;55.972;2023-06-26T02:08:40;10.63;;;4.82;;
60086;SDS011;45960;53.630;55.972;2023-06-26T02:09:41;6.07;;;3.67;;
60086;SDS011;45960;53.630;55.972;2023-06-26T02:10:44;9.20;;;3.95;;
60086;SDS011;45960;53.630;55.972;2023-06-26T02:11:45;11.68;;;4.20;;
60086;SDS011;45960;53.630;55.972;2023-06-26T02:12:46;6.18;;;3.78;;
60086;SDS011;45960;53.630;55.972;2023-06-26T02:13:50;7.50;;;3.60;;
60086;SDS011;45960;53.630;55.972;2023-06-26T02:14:51;6.35;;;3.63;;
60086;SDS011;45960;53.630;55.972;2023-06-26T02:15:58;13.82;;;3.72;;
60086;SDS011;45960;53.630;55.972;2023-06-26T02:16:59;8.20;;;4.15;;
60086;SDS011;45960;53.630;55.972;2023-06-26T02:18:01;6.32;;;3.70;;
60086;SDS011;45960;53.630;55.972;2023-06-26T02:19:02;6.28;;;3.65;;
60086;SDS011;45960;53.630;55.972;2023-06-26T02:20:23;8.85;;;3.75;;
60086;SDS011;45960;53.630;55.972;2023-06-26T02:21:24;7.18;;;3.78;;
60086;SDS011;45960;53.630;55.972;2023-06-26T02:22:25;11.73;;;3.70;;
60086;SDS011;45960;53.630;55.972;2023-06-26T02:23:26;5.25;;;3.25;;
60086;SDS011;45960;53.630;55.972;2023-06-26T02:24:27;5.90;;;3.70;;
60086;SDS011;45960;53.630;55.972;2023-06-26T02:25:32;5.40;;;3.30;;
60086;SDS011;45960;53.630;55.972;2023-06-26T02:26:33;4.82;;;3.08;;
60086;SDS011;45960;53.630;55.972;2023-06-26T02:27:34;7.53;;;3.85;;
60086;SDS011;45960;53.630;55.972;2023-06-26T02:28:35;6.07;;;3.78;;
60086;SDS011;45960;53.630;55.972;2023-06-26T02:29:36;6.18;;;3.53;;
60086;SDS011;45960;53.630;55.972;2023-06-26T02:30:38;5.95;;;3.45;;
60086;SDS011;45960;53.630;55.972;2023-06-26T02:31:39;6.97;;;3.55;;
60086;SDS011;45960;53.630;55.972;2023-06-26T02:32:40;8.38;;;3.15;;
60086;SDS011;45960;53.630;55.972;2023-06-26T02:33:41;7.90;;;3.72;;
60086;SDS011;45960;53.630;55.972;2023-06-26T02:34:43;5.30;;;3.35;;
60086;SDS011;45960;53.630;55.972;2023-06-26T02:35:44;6.72;;;3.10;;
60086;SDS011;45960;53.630;55.972;2023-06-26T02:36:45;6.60;;;3.75;;
60086;SDS011;45960;53.630;55.972;2023-06-26T02:37:46;5.88;;;3.90;;
60086;SDS011;45960;53.630;55.972;2023-06-26T02:38:47;5.85;;;3.35;;
60086;SDS011;45960;53.630;55.972;2023-06-26T02:39:49;7.00;;;3.55;;
60086;SDS011;45960;53.630;55.972;2023-06-26T02:40:50;8.95;;;3.42;;
60086;SDS011;45960;53.630;55.972;2023-06-26T02:41:52;7.47;;;3.00;;
60086;SDS011;45960;53.630;55.972;2023-06-26T02:42:54;27.92;;;3.97;;
60086;SDS011;45960;53.630;55.972;2023-06-26T02:43:55;5.35;;;3.03;;
60086;SDS011;45960;53.630;55.972;2023-06-26T02:44:56;7.55;;;4.75;;
60086;SDS011;45960;53.630;55.972;2023-06-26T02:45:58;7.78;;;2.92;;
60086;SDS011;45960;53.630;55.972;2023-06-26T02:46:59;7.47;;;3.85;;
60086;SDS011;45960;53.630;55.972;2023-06-26T02:48:01;7.63;;;3.63;;
60086;SDS011;45960;53.630;55.972;2023-06-26T02:49:02;6.05;;;3.58;;
60086;SDS011;45960;53.630;55.972;2023-06-26T02:50:03;9.30;;;3.92;;
60086;SDS011;45960;53.630;55.972;2023-06-26T02:51:18;6.28;;;3.78;;
60086;SDS011;45960;53.630;55.972;2023-06-26T02:52:19;5.80;;;3.00;;
60086;SDS011;45960;53.630;55.972;2023-06-26T02:53:21;8.32;;;3.20;;
60086;SDS011;45960;53.630;55.972;2023-06-26T02:54:22;6.75;;;2.97;;
60086;SDS011;45960;53.630;55.972;2023-06-26T02:55:27;6.68;;;3.50;;
60086;SDS011;45960;53.630;55.972;2023-06-26T02:56:29;6.03;;;3.22;;
60086;SDS011;45960;53.630;55.972;2023-06-26T02:57:30;7.72;;;3.50;;
60086;SDS011;45960;53.630;55.972;2023-06-26T02:58:32;11.13;;;3.42;;
60086;SDS011;45960;53.630;55.972;2023-06-26T02:59:34;7.85;;;3.28;;
60086;SDS011;45960;53.630;55.972;2023-06-26T03:00:35;7.97;;;3.42;;
60086;SDS011;45960;53.630;55.972;2023-06-26T03:01:43;7.20;;;2.92;;
60086;SDS011;45960;53.630;55.972;2023-06-26T03:02:44;4.85;;;3.03;;
60086;SDS011;45960;53.630;55.972;2023-06-26T03:03:48;8.60;;;3.30;;
60086;SDS011;45960;53.630;55.972;2023-06-26T03:04:51;5.18;;;3.20;;
60086;SDS011;45960;53.630;55.972;2023-06-26T03:05:53;8.63;;;3.40;;
60086;SDS011;45960;53.630;55.972;2023-06-26T03:06:54;6.97;;;3.35;;
60086;SDS011;45960;53.630;55.972;2023-06-26T03:07:55;8.13;;;3.90;;
60086;SDS011;45960;53.630;55.972;2023-06-26T03:08:56;9.05;;;3.30;;
60086;SDS011;45960;53.630;55.972;2023-06-26T03:09:58;7.30;;;3.22;;
60086;SDS011;45960;53.630;55.972;2023-06-26T03:11:00;12.38;;;4.63;;
60086;SDS011;45960;53.630;55.972;2023-06-26T03:12:01;10.45;;;4.20;;
60086;SDS011;45960;53.630;55.972;2023-06-26T03:13:02;7.63;;;5.18;;
60086;SDS011;45960;53.630;55.972;2023-06-26T03:14:03;6.88;;;3.22;;
60086;SDS011;45960;53.630;55.972;2023-06-26T03:15:05;7.70;;;3.22;;
60086;SDS011;45960;53.630;55.972;2023-06-26T03:16:07;13.50;;;3.80;;
60086;SDS011;45960;53.630;55.972;2023-06-26T03:17:08;6.63;;;3.28;;
60086;SDS011;45960;53.630;55.972;2023-06-26T03:18:11;10.98;;;3.90;;
60086;SDS011;45960;53.630;55.972;2023-06-26T03:19:12;12.38;;;4.22;;
60086;SDS011;45960;53.630;55.972;2023-06-26T03:20:49;6.95;;;3.13;;
60086;SDS011;45960;53.630;55.972;2023-06-26T03:21:50;8.80;;;4.72;;
60086;SDS011;45960;53.630;55.972;2023-06-26T03:22:51;14.02;;;4.75;;
60086;SDS011;45960;53.630;55.972;2023-06-26T03:23:53;13.48;;;4.22;;
60086;SDS011;45960;53.630;55.972;2023-06-26T03:24:55;8.35;;;3.80;;
60086;SDS011;45960;53.630;55.972;2023-06-26T03:25:56;10.63;;;4.57;;
60086;SDS011;45960;53.630;55.972;2023-06-26T03:27:05;20.02;;;5.05;;
60086;SDS011;45960;53.630;55.972;2023-06-26T03:28:07;11.45;;;5.05;;
60086;SDS011;45960;53.630;55.972;2023-06-26T03:29:10;12.75;;;4.35;;
60086;SDS011;45960;53.630;55.972;2023-06-26T03:30:11;9.80;;;4.03;;
60086;SDS011;45960;53.630;55.972;2023-06-26T03:31:14;8.35;;;3.00;;
60086;SDS011;45960;53.630;55.972;2023-06-26T03:32:15;7.18;;;3.28;;
60086;SDS011;45960;53.630;55.972;2023-06-26T03:33:37;11.38;;;3.28;;
60086;SDS011;45960;53.630;55.972;2023-06-26T03:34:39;5.20;;;3.55;;
60086;SDS011;45960;53.630;55.972;2023-06-26T03:35:41;8.65;;;3.60;;
60086;SDS011;45960;53.630;55.972;2023-06-26T03:36:44;16.48;;;3.60;;
60086;SDS011;45960;53.630;55.972;2023-06-26T03:37:46;19.75;;;3.67;;
60086;SDS011;45960;53.630;55.972;2023-06-26T03:38:47;9.10;;;3.30;;
60086;SDS011;45960;53.630;55.972;2023-06-26T03:39:48;16.13;;;3.45;;
60086;SDS011;45960;53.630;55.972;2023-06-26T03:40:50;5.97;;;3.30;;
60086;SDS011;45960;53.630;55.972;2023-06-26T03:41:51;7.32;;;2.92;;
60086;SDS011;45960;53.630;55.972;2023-06-26T03:42:54;4.85;;;2.88;;
60086;SDS011;45960;53.630;55.972;2023-06-26T03:43:55;6.43;;;2.88;;
60086;SDS011;45960;53.630;55.972;2023-06-26T03:45:02;10.90;;;3.60;;
60086;SDS011;45960;53.630;55.972;2023-06-26T03:46:03;6.70;;;3.00;;
60086;SDS011;45960;53.630;55.972;2023-06-26T03:47:05;6.13;;;3.47;;
60086;SDS011;45960;53.630;55.972;2023-06-26T03:48:06;5.80;;;2.95;;
60086;SDS011;45960;53.630;55.972;2023-06-26T03:49:10;7.35;;;3.85;;
60086;SDS011;45960;53.630;55.972;2023-06-26T03:50:11;7.13;;;3.00;;
60086;SDS011;45960;53.630;55.972;2023-06-26T03:51:13;4.85;;;2.75;;
60086;SDS011;45960;53.630;55.972;2023-06-26T03:52:14;5.03;;;2.67;;
60086;SDS011;45960;53.630;55.972;2023-06-26T03:53:15;7.22;;;2.65;;
60086;SDS011;45960;53.630;55.972;2023-06-26T03:54:16;5.97;;;2.88;;
60086;SDS011;45960;53.630;55.972;2023-06-26T03:55:17;6.30;;;2.88;;
60086;SDS011;45960;53.630;55.972;2023-06-26T03:56:19;5.80;;;2.60;;
60086;SDS011;45960;53.630;55.972;2023-06-26T03:57:21;13.25;;;2.83;;
60086;SDS011;45960;53.630;55.972;2023-06-26T03:58:22;4.43;;;2.83;;
60086;SDS011;45960;53.630;55.972;2023-06-26T03:59:23;4.80;;;3.05;;
60086;SDS011;45960;53.630;55.972;2023-06-26T04:00:24;6.70;;;2.97;;
60086;SDS011;45960;53.630;55.972;2023-06-26T04:01:25;6.85;;;2.80;;
60086;SDS011;45960;53.630;55.972;2023-06-26T04:02:47;8.52;;;3.50;;
60086;SDS011;45960;53.630;55.972;2023-06-26T04:03:48;9.45;;;2.88;;
60086;SDS011;45960;53.630;55.972;2023-06-26T04:04:49;5.68;;;3.13;;
60086;SDS011;45960;53.630;55.972;2023-06-26T04:05:50;5.53;;;2.90;;
60086;SDS011;45960;53.630;55.972;2023-06-26T04:06:52;6.15;;;3.45;;
60086;SDS011;45960;53.630;55.972;2023-06-26T04:07:55;7.68;;;3.40;;
60086;SDS011;45960;53.630;55.972;2023-06-26T04:08:56;4.47;;;2.85;;
60086;SDS011;45960;53.630;55.972;2023-06-26T04:09:57;4.47;;;2.50;;
60086;SDS011;45960;53.630;55.972;2023-06-26T04:10:58;8.05;;;3.00;;
60086;SDS011;45960;53.630;55.972;2023-06-26T04:12:00;5.03;;;2.60;;
60086;SDS011;45960;53.630;55.972;2023-06-26T04:13:02;4.18;;;2.55;;
60086;SDS011;45960;53.630;55.972;2023-06-26T04:14:03;4.78;;;2.90;;
60086;SDS011;45960;53.630;55.972;2023-06-26T04:15:04;11.77;;;3.22;;
60086;SDS011;45960;53.630;55.972;2023-06-26T04:16:06;22.17;;;4.38;;
60086;SDS011;45960;53.630;55.972;2023-06-26T04:17:07;6.07;;;3.10;;
60086;SDS011;45960;53.630;55.972;2023-06-26T04:18:09;5.80;;;3.47;;
60086;SDS011;45960;53.630;55.972;2023-06-26T04:19:10;8.15;;;3.50;;
60086;SDS011;45960;53.630;55.972;2023-06-26T04:20:12;7.88;;;3.63;;
60086;SDS011;45960;53.630;55.972;2023-06-26T04:21:13;6.22;;;2.78;;
60086;SDS011;45960;53.630;55.972;2023-06-26T04:22:14;7.18;;;3.08;;
60086;SDS011;45960;53.630;55.972;2023-06-26T04:23:15;5.53;;;3.40;;
60086;SDS011;45960;53.630;55.972;2023-06-26T04:24:17;5.38;;;2.83;;
60086;SDS011;45960;53.630;55.972;2023-06-26T04:25:18;6.63;;;2.78;;
60086;SDS011;45960;53.630;55.972;2023-06-26T04:26:20;5.43;;;3.03;;
60086;SDS011;45960;53.630;55.972;2023-06-26T04:27:21;5.25;;;2.70;;
60086;SDS011;45960;53.630;55.972;2023-06-26T04:28:22;8.85;;;2.80;;
60086;SDS011;45960;53.630;55.972;2023-06-26T04:29:24;10.10;;;2.38;;
60086;SDS011;45960;53.630;55.972;2023-06-26T04:30:27;10.32;;;3.15;;
60086;SDS011;45960;53.630;55.972;2023-06-26T04:31:28;12.05;;;2.92;;
60086;SDS011;45960;53.630;55.972;2023-06-26T04:32:29;7.43;;;3.55;;
60086;SDS011;45960;53.630;55.972;2023-06-26T04:33:30;6.97;;;2.88;;
60086;SDS011;45960;53.630;55.972;2023-06-26T04:34:32;7.80;;;2.53;;
60086;SDS011;45960;53.630;55.972;2023-06-26T04:35:34;10.57;;;2.65;;
60086;SDS011;45960;53.630;55.972;2023-06-26T04:36:37;5.60;;;2.90;;
60086;SDS011;45960;53.630;55.972;2023-06-26T04:37:39;10.32;;;3.58;;
60086;SDS011;45960;53.630;55.972;2023-06-26T04:38:40;7.55;;;3.38;;
60086;SDS011;45960;53.630;55.972;2023-06-26T04:39:42;9.35;;;3.15;;
60086;SDS011;45960;53.630;55.972;2023-06-26T04:40:43;17.38;;;4.10;;
60086;SDS011;45960;53.630;55.972;2023-06-26T04:41:44;7.75;;;3.90;;
60086;SDS011;45960;53.630;55.972;2023-06-26T04:42:46;7.60;;;2.90;;
60086;SDS011;45960;53.630;55.972;2023-06-26T04:43:47;6.55;;;2.47;;
60086;SDS011;45960;53.630;55.972;2023-06-26T04:44:48;4.70;;;2.40;;
60086;SDS011;45960;53.630;55.972;2023-06-26T04:45:49;10.05;;;2.85;;
60086;SDS011;45960;53.630;55.972;2023-06-26T04:46:50;9.10;;;2.55;;
60086;SDS011;45960;53.630;55.972;2023-06-26T04:47:52;6.63;;;2.60;;
60086;SDS011;45960;53.630;55.972;2023-06-26T04:48:53;4.90;;;3.20;;
60086;SDS011;45960;53.630;55.972;2023-06-26T04:49:54;11.32;;;2.83;;
60086;SDS011;45960;53.630;55.972;2023-06-26T04:50:56;7.07;;;2.50;;
60086;SDS011;45960;53.630;55.972;2023-06-26T04:51:57;5.93;;;2.90;;
60086;SDS011;45960;53.630;55.972;2023-06-26T04:53:01;4.53;;;2.63;;
60086;SDS011;45960;53.630;55.972;2023-06-26T04:54:03;6.43;;;3.10;;
60086;SDS011;45960;53.630;55.972;2023-06-26T04:55:04;5.80;;;2.65;;
60086;SDS011;45960;53.630;55.972;2023-06-26T04:56:05;10.35;;;3.00;;
60086;SDS011;45960;53.630;55.972;2023-06-26T04:57:06;6.35;;;2.88;;
60086;SDS011;45960;53.630;55.972;2023-06-26T04:58:09;7.35;;;2.45;;
60086;SDS011;45960;53.630;55.972;2023-06-26T04:59:10;8.38;;;2.92;;
60086;SDS011;45960;53.630;55.972;2023-06-26T05:00:13;5.25;;;2.88;;
60086;SDS011;45960;53.630;55.972;2023-06-26T05:01:16;4.78;;;2.00;;
60086;SDS011;45960;53.630;55.972;2023-06-26T05:02:17;11.80;;;2.60;;
60086;SDS011;45960;53.630;55.972;2023-06-26T05:03:18;8.18;;;3.40;;
60086;SDS011;45960;53.630;55.972;2023-06-26T05:04:19;7.65;;;2.60;;
60086;SDS011;45960;53.630;55.972;2023-06-26T05:05:21;4.53;;;2.15;;
60086;SDS011;45960;53.630;55.972;2023-06-26T05:06:22;4.03;;;2.25;;
60086;SDS011;45960;53.630;55.972;2023-06-26T05:07:23;4.45;;;2.65;;
60086;SDS011;45960;53.630;55.972;2023-06-26T05:08:24;4.43;;;2.60;;
60086;SDS011;45960;53.630;55.972;2023-06-26T05:09:29;4.78;;;2.88;;
60086;SDS011;45960;53.630;55.972;2023-06-26T05:10:30;6.88;;;2.80;;
60086;SDS011;45960;53.630;55.972;2023-06-26T05:11:31;5.72;;;2.75;;
60086;SDS011;45960;53.630;55.972;2023-06-26T05:12:33;8.40;;;2.45;;
60086;SDS011;45960;53.630;55.972;2023-06-26T05:13:34;7.72;;;3.15;;
60086;SDS011;45960;53.630;55.972;2023-06-26T05:14:35;7.53;;;2.92;;
60086;SDS011;45960;53.630;55.972;2023-06-26T05:15:36;6.30;;;2.50;;
60086;SDS011;45960;53.630;55.972;2023-06-26T05:16:37;6.03;;;2.60;;
60086;SDS011;45960;53.630;55.972;2023-06-26T05:17:38;5.85;;;2.80;;
60086;SDS011;45960;53.630;55.972;2023-06-26T05:18:40;6.13;;;1.90;;
60086;SDS011;45960;53.630;55.972;2023-06-26T05:19:41;7.75;;;2.35;;
60086;SDS011;45960;53.630;55.972;2023-06-26T05:20:42;3.58;;;2.10;;
60086;SDS011;45960;53.630;55.972;2023-06-26T05:21:43;4.90;;;2.58;;
60086;SDS011;45960;53.630;55.972;2023-06-26T05:23:05;8.50;;;2.63;;
60086;SDS011;45960;53.630;55.972;2023-06-26T05:24:06;4.03;;;1.90;;
60086;SDS011;45960;53.630;55.972;2023-06-26T05:25:09;4.32;;;2.05;;
60086;SDS011;45960;53.630;55.972;2023-06-26T05:26:11;4.75;;;2.25;;
60086;SDS011;45960;53.630;55.972;2023-06-26T05:27:13;22.70;;;2.88;;
60086;SDS011;45960;53.630;55.972;2023-06-26T05:28:22;3.42;;;1.75;;
60086;SDS011;45960;53.630;55.972;2023-06-26T05:29:28;10.10;;;2.10;;
60086;SDS011;45960;53.630;55.972;2023-06-26T05:30:33;6.53;;;2.22;;
60086;SDS011;45960;53.630;55.972;2023-06-26T05:31:35;7.90;;;2.25;;
60086;SDS011;45960;53.630;55.972;2023-06-26T05:32:41;10.73;;;2.70;;
60086;SDS011;45960;53.630;55.972;2023-06-26T05:33:45;5.57;;;2.22;;
60086;SDS011;45960;53.630;55.972;2023-06-26T05:34:48;12.60;;;2.83;;
60086;SDS011;45960;53.630;55.972;2023-06-26T05:35:51;14.32;;;3.42;;
60086;SDS011;45960;53.630;55.972;2023-06-26T05:36:55;7.85;;;2.30;;
60086;SDS011;45960;53.630;55.972;2023-06-26T05:37:59;6.20;;;2.67;;
60086;SDS011;45960;53.630;55.972;2023-06-26T05:39:00;5.05;;;2.60;;
60086;SDS011;45960;53.630;55.972;2023-06-26T05:40:03;4.53;;;2.40;;
60086;SDS011;45960;53.630;55.972;2023-06-26T05:41:05;7.65;;;2.50;;
60086;SDS011;45960;53.630;55.972;2023-06-26T05:42:07;7.95;;;2.63;;
60086;SDS011;45960;53.630;55.972;2023-06-26T05:43:08;13.70;;;3.35;;
60086;SDS011;45960;53.630;55.972;2023-06-26T05:44:10;14.85;;;4.80;;
60086;SDS011;45960;53.630;55.972;2023-06-26T05:45:11;9.38;;;3.90;;
60086;SDS011;45960;53.630;55.972;2023-06-26T05:46:12;11.27;;;3.17;;
60086;SDS011;45960;53.630;55.972;2023-06-26T05:47:14;6.15;;;2.63;;
60086;SDS011;45960;53.630;55.972;2023-06-26T05:48:15;11.52;;;2.83;;
60086;SDS011;45960;53.630;55.972;2023-06-26T05:49:16;10.32;;;3.45;;
60086;SDS011;45960;53.630;55.972;2023-06-26T05:50:17;30.67;;;4.32;;
60086;SDS011;45960;53.630;55.972;2023-06-26T05:51:19;13.95;;;4.30;;
60086;SDS011;45960;53.630;55.972;2023-06-26T05:52:20;10.70;;;4.30;;
60086;SDS011;45960;53.630;55.972;2023-06-26T05:53:22;18.40;;;5.00;;
60086;SDS011;45960;53.630;55.972;2023-06-26T05:54:23;12.63;;;3.85;;
60086;SDS011;45960;53.630;55.972;2023-06-26T05:55:25;13.02;;;3.88;;
60086;SDS011;45960;53.630;55.972;2023-06-26T05:56:26;11.13;;;3.95;;
60086;SDS011;45960;53.630;55.972;2023-06-26T05:57:28;8.88;;;2.92;;
60086;SDS011;45960;53.630;55.972;2023-06-26T05:58:30;10.70;;;3.17;;
60086;SDS011;45960;53.630;55.972;2023-06-26T05:59:31;14.52;;;4.65;;
60086;SDS011;45960;53.630;55.972;2023-06-26T06:00:33;12.30;;;3.80;;
60086;SDS011;45960;53.630;55.972;2023-06-26T06:01:34;8.52;;;4.35;;
60086;SDS011;45960;53.630;55.972;2023-06-26T06:02:36;9.32;;;3.22;;
60086;SDS011;45960;53.630;55.972;2023-06-26T06:03:39;10.45;;;3.85;;
60086;SDS011;45960;53.630;55.972;2023-06-26T06:04:40;14.38;;;4.18;;
60086;SDS011;45960;53.630;55.972;2023-06-26T06:05:41;13.50;;;4.18;;
60086;SDS011;45960;53.630;55.972;2023-06-26T06:06:42;11.00;;;4.97;;
60086;SDS011;45960;53.630;55.972;2023-06-26T06:07:43;25.58;;;5.03;;
60086;SDS011;45960;53.630;55.972;2023-06-26T06:08:44;14.57;;;4.32;;
60086;SDS011;45960;53.630;55.972;2023-06-26T06:09:46;19.02;;;4.50;;
60086;SDS011;45960;53.630;55.972;2023-06-26T06:10:47;7.72;;;2.65;;
60086;SDS011;45960;53.630;55.972;2023-06-26T06:11:48;13.40;;;3.65;;
60086;SDS011;45960;53.630;55.972;2023-06-26T06:12:49;15.40;;;2.75;;
60086;SDS011;45960;53.630;55.972;2023-06-26T06:13:50;8.00;;;2.70;;